Time;durP1;ratioP1;P1;durP2;ratioP2;P2;SDS_P1;SDS_P2;PMS_P1;PMS_P2;Temp;Humidity;BMP_temperature;BMP_pressure;BME280_temperature;BME280_humidity;BME280_pressure;Samples;Min_cycle;Max_cycle;Signal;HPM_P1;HPM_P2
2022/09/25 00:01:02;;;;;;;6.63;1.88;;;;;;;16.04;62.28;101469.16;4987464;28;113917;-60
2022/09/25 00:03:30;;;;;;;7.43;1.70;;;;;;;16.03;62.21;101470.13;4989189;28;123868;-60
2022/09/25 00:06:01;;;;;;;6.00;1.77;;;;;;;16.01;62.11;101472.03;4987563;28;124375;-60
2022/09/25 00:08:28;;;;;;;7.45;1.92;;;;;;;15.99;62.18;101476.56;4988259;28;114274;-60
2022/09/25 00:10:55;;;;;;;9.25;2.00;;;;;;;15.98;62.17;101479.34;4989846;28;115077;-60
2022/09/25 00:13:23;;;;;;;7.85;2.20;;;;;;;15.96;62.22;101472.25;4988904;28;123859;-60
2022/09/25 00:15:55;;;;;;;5.95;1.75;;;;;;;15.95;62.12;101475.03;4988481;28;124577;-60
2022/09/25 00:21:13;;;;;;;8.15;1.63;;;;;;;15.91;61.93;101479.69;4988012;28;114942;-60
2022/09/25 00:23:43;;;;;;;7.88;1.80;;;;;;;15.89;61.79;101476.22;4990260;28;124367;-61
2022/09/25 00:26:12;;;;;;;7.03;1.80;;;;;;;15.88;61.93;101481.66;4987625;28;124572;-60
2022/09/25 00:28:41;;;;;;;7.32;2.03;;;;;;;15.86;62.02;101476.44;4991464;28;114340;-61
2022/09/25 00:31:09;;;;;;;8.48;2.00;;;;;;;15.85;62.07;101479.19;4987554;28;113786;-60
2022/09/25 00:33:37;;;;;;;9.52;1.90;;;;;;;15.84;62.10;101483.69;4987620;28;124047;-60
2022/09/25 00:36:06;;;;;;;6.32;1.80;;;;;;;15.82;62.18;101477.53;4987518;28;124594;-60
2022/09/25 00:38:35;;;;;;;9.57;2.10;;;;;;;15.79;61.87;101479.53;4982860;28;113201;-60
2022/09/25 00:41:05;;;;;;;6.53;1.63;;;;;;;15.76;61.86;101486.78;4989279;28;113991;-60
2022/09/25 00:43:43;;;;;;;6.78;2.08;;;;;;;15.72;61.79;101474.50;4986783;28;124139;-60
2022/09/25 00:46:23;;;;;;;5.57;2.00;;;;;;;15.70;61.86;101481.72;4987919;28;124312;-61
2022/09/25 00:48:58;;;;;;;8.55;1.90;;;;;;;15.69;61.73;101489.81;4985561;28;114388;-60
2022/09/25 00:51:33;;;;;;;4.80;2.08;;;;;;;15.65;61.87;101467.81;4989825;28;114069;-60
2022/09/25 00:54:03;;;;;;;7.35;2.10;;;;;;;15.62;61.90;101473.31;4983273;28;124087;-59
2022/09/25 00:56:39;;;;;;;8.38;2.10;;;;;;;15.61;61.84;101474.22;4987343;28;125394;-60
2022/09/25 00:59:11;;;;;;;6.63;1.90;;;;;;;15.59;61.94;101473.47;4986990;28;113098;-60
2022/09/25 01:01:39;;;;;;;9.98;1.90;;;;;;;15.59;61.92;101481.47;4990096;28;114345;-60
2022/09/25 01:04:07;;;;;;;7.28;2.00;;;;;;;15.59;61.82;101481.47;4986388;28;123928;-60
2022/09/25 01:06:35;;;;;;;6.85;1.98;;;;;;;15.58;61.77;101482.44;4985530;28;124370;-60
2022/09/25 01:09:02;;;;;;;7.25;1.88;;;;;;;15.57;61.89;101480.69;4986194;28;114814;-60
2022/09/25 01:11:29;;;;;;;10.32;2.05;;;;;;;15.54;61.78;101476.41;4987561;28;115348;-60
2022/09/25 01:14:00;;;;;;;8.75;2.10;;;;;;;15.53;61.72;101481.81;4988492;28;124705;-60
2022/09/25 01:16:48;;;;;;;7.30;2.10;;;;;;;15.50;61.55;101484.66;4986789;28;125281;-59
2022/09/25 01:19:34;;;;;;;6.22;2.10;;;;;;;15.47;61.61;101480.34;4985280;28;114557;-60
2022/09/25 01:22:17;;;;;;;7.03;2.40;;;;;;;15.41;61.73;101486.03;4987435;28;113789;-60
2022/09/25 01:24:52;;;;;;;10.05;2.40;;;;;;;15.36;61.71;101488.94;4981494;28;123047;-60
2022/09/25 01:27:32;;;;;;;6.90;2.13;;;;;;;15.33;61.78;101493.59;4989911;28;96876;-60
2022/09/25 01:30:12;;;;;;;8.15;1.98;;;;;;;15.27;61.82;101497.44;4986833;28;114354;-61
2022/09/25 01:33:11;;;;;;;7.40;2.10;;;;;;;15.25;61.74;101498.50;4985771;28;114123;-59
2022/09/25 01:35:58;;;;;;;6.50;2.10;;;;;;;15.17;61.58;101488.22;4972363;28;124105;-59
2022/09/25 01:38:38;;;;;;;6.15;2.30;;;;;;;15.13;61.87;101486.69;4987300;28;123960;-59
2022/09/25 01:41:11;;;;;;;7.60;2.40;;;;;;;15.10;61.74;101487.69;4987933;28;114717;-60
2022/09/25 01:43:49;;;;;;;5.00;2.40;;;;;;;15.07;61.81;101493.22;4988943;28;114051;-60
2022/09/25 01:46:21;;;;;;;5.22;2.17;;;;;;;15.03;61.79;101497.00;4982101;28;125005;-60
2022/09/25 01:48:54;;;;;;;6.63;2.40;;;;;;;14.98;61.78;101494.56;4987159;28;125213;-60
2022/09/25 01:51:31;;;;;;;7.18;2.53;;;;;;;14.94;61.87;101497.47;4989328;28;114365;-61
2022/09/25 01:54:04;;;;;;;7.00;2.25;;;;;;;14.89;62.03;101489.69;4988284;28;114104;-62
2022/09/25 01:56:45;;;;;;;9.63;2.22;;;;;;;14.86;61.84;101505.88;4976993;28;122723;-59
2022/09/25 01:59:22;;;;;;;7.97;2.40;;;;;;;14.82;61.99;101498.97;4984017;28;123654;-60
2022/09/25 02:01:51;;;;;;;7.05;2.42;;;;;;;14.78;62.09;101502.72;4988035;28;113642;-59
2022/09/25 02:04:28;;;;;;;9.25;2.78;;;;;;;14.75;62.28;101497.59;4987240;28;115330;-60
2022/09/25 02:07:00;;;;;;;7.70;2.72;;;;;;;14.72;62.01;101503.91;4988750;28;124212;-60
2022/09/25 02:09:33;;;;;;;8.45;2.38;;;;;;;14.69;62.07;101503.22;4986124;28;124634;-60
2022/09/25 02:12:07;;;;;;;9.45;2.38;;;;;;;14.66;62.21;101508.72;4987062;28;115617;-59
2022/09/25 02:14:43;;;;;;;7.70;2.67;;;;;;;14.64;62.43;101505.28;4985233;28;114226;-60
2022/09/25 02:20:30;;;;;;;8.93;2.50;;;;;;;14.60;62.16;101500.09;4985605;28;122048;-60
2022/09/25 02:22:52;;;;;;;7.50;2.72;;;;;;;14.55;62.20;101496.75;4988848;28;114165;-60
2022/09/25 02:25:33;;;;;;;8.75;2.33;;;;;;;14.53;62.22;101498.63;4988123;28;112847;-60
2022/09/25 02:28:00;;;;;;;8.90;2.70;;;;;;;14.53;62.28;101503.13;4989127;28;123991;-61
2022/09/25 02:30:27;;;;;;;10.55;2.95;;;;;;;14.51;62.50;101511.19;4990663;28;124215;-60
2022/09/25 02:32:56;;;;;;;10.23;2.63;;;;;;;14.50;62.33;101506.78;4989020;28;114911;-60
2022/09/25 02:35:27;;;;;;;10.05;2.90;;;;;;;14.50;62.42;101498.78;4990713;28;113959;-60
2022/09/25 02:37:58;;;;;;;8.20;2.78;;;;;;;14.48;62.44;101506.00;4990406;28;124742;-60
2022/09/25 02:40:39;;;;;;;7.28;2.78;;;;;;;14.46;62.52;101507.88;4990249;28;124630;-60
2022/09/25 02:43:14;;;;;;;10.07;2.70;;;;;;;14.44;62.50;101499.09;4989625;28;114251;-60
2022/09/25 02:45:49;;;;;;;6.90;2.95;;;;;;;14.43;62.48;101492.06;4989372;28;113984;-60
2022/09/25 02:48:48;;;;;;;12.27;3.13;;;;;;;14.43;62.46;101492.06;4986290;28;123338;-60
2022/09/25 02:51:27;;;;;;;12.55;2.83;;;;;;;14.43;62.75;101491.19;4989909;28;124488;-60
2022/09/25 02:53:58;;;;;;;8.65;2.63;;;;;;;14.43;62.53;101486.75;4986757;28;115234;-60
2022/09/25 02:56:32;;;;;;;8.45;3.05;;;;;;;14.42;62.66;101487.66;4988921;28;114744;-60
2022/09/25 02:59:17;;;;;;;6.68;3.03;;;;;;;14.40;62.42;101493.06;4989061;28;124049;-60
2022/09/25 03:01:46;;;;;;;11.70;3.23;;;;;;;14.41;62.60;101483.28;5006880;28;124766;-60
2022/09/25 03:04:16;;;;;;;8.50;3.00;;;;;;;14.40;62.61;101486.88;4991721;28;114391;-60
2022/09/25 03:06:44;;;;;;;5.85;2.92;;;;;;;14.40;62.66;101492.22;4990814;28;114274;-60
2022/09/25 03:09:14;;;;;;;7.75;3.10;;;;;;;14.39;62.56;101485.13;4988808;28;124360;-60
2022/09/25 03:11:42;;;;;;;7.07;3.30;;;;;;;14.40;62.59;101492.22;4991997;28;123962;-60
2022/09/25 03:14:09;;;;;;;11.52;3.45;;;;;;;14.40;62.56;101486.88;4988956;28;113996;-60
2022/09/25 03:16:38;;;;;;;8.43;3.15;;;;;;;14.39;62.49;101485.13;4990267;28;114945;-60
2022/09/25 03:19:05;;;;;;;12.35;3.17;;;;;;;14.38;62.53;101478.09;4989630;28;124567;-60
2022/09/25 03:21:32;;;;;;;8.40;3.58;;;;;;;14.38;62.44;101483.44;4989947;28;123717;-60
2022/09/25 03:24:00;;;;;;;7.72;3.10;;;;;;;14.38;62.34;101483.44;4986127;28;113355;-60
2022/09/25 03:26:28;;;;;;;10.70;2.92;;;;;;;14.37;62.31;101487.91;4988076;28;114978;-60
2022/09/25 03:28:56;;;;;;;6.30;2.78;;;;;;;14.35;62.19;101483.56;4987693;28;124151;-60
2022/09/25 03:31:23;;;;;;;7.35;2.97;;;;;;;14.30;62.17;101481.16;4989628;28;123133;-59
2022/09/25 03:33:51;;;;;;;9.70;3.10;;;;;;;14.28;62.11;101479.50;4989043;28;114635;-60
2022/09/25 03:36:20;;;;;;;6.40;2.90;;;;;;;14.26;62.20;101481.38;4988137;28;114360;-60
2022/09/25 03:38:50;;;;;;;7.18;3.40;;;;;;;14.22;62.17;101493.97;4991476;28;123783;-60
2022/09/25 03:41:20;;;;;;;7.65;3.35;;;;;;;14.18;62.12;101482.66;4989888;28;123043;-60
2022/09/25 03:43:50;;;;;;;8.45;3.30;;;;;;;14.15;62.14;101488.13;4989384;28;115817;-60
2022/09/25 03:46:20;;;;;;;9.00;3.30;;;;;;;14.13;62.14;101490.00;4989790;28;115555;-60
2022/09/25 03:48:48;;;;;;;6.78;3.25;;;;;;;14.10;62.03;101490.13;4990909;28;124021;-60
2022/09/25 03:51:15;;;;;;;12.02;3.20;;;;;;;14.07;62.12;101481.44;4981468;28;122860;-60
2022/09/25 03:53:42;;;;;;;9.95;3.50;;;;;;;14.05;62.00;101481.50;4988409;28;114079;-60
2022/09/25 03:56:19;;;;;;;7.82;3.10;;;;;;;14.00;61.90;101478.22;4988884;28;114017;-60
2022/09/25 03:58:47;;;;;;;9.27;3.28;;;;;;;13.98;61.87;101474.78;4990311;28;124190;-60
2022/09/25 04:01:14;;;;;;;6.53;3.40;;;;;;;13.95;62.00;101469.59;4990751;28;123753;-60
2022/09/25 04:03:45;;;;;;;6.03;3.05;;;;;;;13.91;61.95;101478.69;4987417;28;115302;-60
2022/09/25 04:06:18;;;;;;;9.75;3.38;;;;;;;13.87;61.86;101482.44;4985253;28;113981;-60
2022/09/25 04:08:47;;;;;;;8.38;2.90;;;;;;;13.83;61.81;101487.88;4988651;28;123962;-60
2022/09/25 04:11:16;;;;;;;9.00;3.28;;;;;;;13.80;62.19;101477.38;4990084;28;123859;-60
2022/09/25 04:13:43;;;;;;;8.40;3.47;;;;;;;13.76;61.84;101478.47;4991202;28;114156;-60
2022/09/25 04:16:12;;;;;;;8.73;3.30;;;;;;;13.72;61.79;101474.25;4989072;28;114789;-60
2022/09/25 04:18:41;;;;;;;8.13;3.42;;;;;;;13.68;61.79;101472.66;4987787;28;124173;-60
2022/09/25 04:21:12;;;;;;;7.45;2.90;;;;;;;13.63;61.62;101474.66;4988130;28;124582;-60
2022/09/25 04:23:39;;;;;;;6.53;3.25;;;;;;;13.60;61.74;101480.16;4989997;28;114333;-60
2022/09/25 04:26:08;;;;;;;9.05;3.58;;;;;;;13.57;61.71;101480.28;4990087;28;113797;-60
2022/09/25 04:28:35;;;;;;;7.80;3.47;;;;;;;13.52;61.90;101482.31;4987566;28;124038;-60
2022/09/25 04:31:03;;;;;;;7.43;3.63;;;;;;;13.49;61.93;101482.47;4989524;28;123904;-60
2022/09/25 04:33:46;;;;;;;13.07;3.95;;;;;;;13.45;61.93;101481.75;4986741;28;115450;-61
2022/09/25 04:36:15;;;;;;;9.38;4.15;;;;;;;13.40;61.86;101484.59;4987181;28;116332;-60
2022/09/25 04:38:42;;;;;;;9.02;3.90;;;;;;;13.38;61.98;101491.78;4988614;28;124460;-60
2022/09/25 04:41:10;;;;;;;9.68;4.03;;;;;;;13.32;62.07;101481.44;4987132;28;124705;-60
2022/09/25 04:43:39;;;;;;;9.68;4.32;;;;;;;13.31;62.10;101485.03;4988322;28;114188;-59
2022/09/25 04:46:09;;;;;;;11.48;4.63;;;;;;;13.29;61.87;101489.53;4984754;28;113987;-61
2022/09/25 04:48:44;;;;;;;12.25;4.95;;;;;;;13.25;62.11;101495.94;4987417;28;124333;-60
2022/09/25 04:51:12;;;;;;;8.00;4.80;;;;;;;13.23;61.94;101492.47;4988628;28;123934;-60
2022/09/25 04:53:39;;;;;;;10.93;4.90;;;;;;;13.20;62.03;101487.28;4987955;28;114452;-59
2022/09/25 04:56:07;;;;;;;11.13;4.85;;;;;;;13.17;62.11;101490.97;4986747;28;114367;-60
2022/09/25 04:58:46;;;;;;;12.57;4.75;;;;;;;13.15;62.16;101484.00;4987413;28;124846;-60
2022/09/25 05:01:15;;;;;;;9.60;4.55;;;;;;;13.13;62.18;101485.84;4988981;28;123183;-60
2022/09/25 05:03:42;;;;;;;6.60;4.57;;;;;;;13.11;62.16;101471.75;4986636;28;113298;-60
2022/09/25 05:06:10;;;;;;;9.40;4.70;;;;;;;13.08;62.07;101466.59;4988989;28;113817;-60
2022/09/25 05:08:37;;;;;;;8.68;4.50;;;;;;;13.05;62.38;101468.47;4987660;28;124763;-63
2022/09/25 05:11:04;;;;;;;9.18;4.68;;;;;;;13.03;62.31;101467.66;4989209;28;124321;-60
2022/09/25 05:13:31;;;;;;;8.45;4.68;;;;;;;13.01;62.21;101465.97;4988093;28;114506;-60
2022/09/25 05:15:58;;;;;;;7.15;4.28;;;;;;;13.00;62.28;101481.09;4987292;28;113611;-60
2022/09/25 05:18:25;;;;;;;7.10;4.57;;;;;;;12.97;62.08;101475.91;4987202;28;124669;-60
2022/09/25 05:20:53;;;;;;;8.85;4.20;;;;;;;12.93;62.18;101474.31;4986926;28;124344;-60
2022/09/25 05:23:20;;;;;;;8.32;4.63;;;;;;;12.92;62.26;101472.59;4988205;28;115320;-60
2022/09/25 05:25:56;;;;;;;12.43;5.07;;;;;;;12.88;62.04;101476.31;4986205;28;115608;-60
2022/09/25 05:28:23;;;;;;;9.80;4.57;;;;;;;12.84;62.18;101474.72;4979046;28;124183;-60
2022/09/25 05:30:51;;;;;;;9.57;4.30;;;;;;;12.80;62.26;101473.13;4989334;28;124536;-61
2022/09/25 05:33:18;;;;;;;11.40;4.97;;;;;;;12.79;62.62;101471.38;4988794;28;113520;-61
2022/09/25 05:35:47;;;;;;;10.20;5.38;;;;;;;12.77;62.58;101478.56;4987323;28;113992;-61
2022/09/25 05:38:14;;;;;;;9.85;4.63;;;;;;;12.77;62.66;101478.56;4988384;28;123260;-61
2022/09/25 05:40:42;;;;;;;9.45;5.10;;;;;;;12.76;62.52;101471.53;4989155;28;123722;-61
2022/09/25 05:43:11;;;;;;;9.77;5.18;;;;;;;12.74;62.55;101468.09;4989953;28;114330;-61
2022/09/25 05:45:38;;;;;;;9.85;4.90;;;;;;;12.73;62.51;101466.34;4988940;28;114031;-61
2022/09/25 05:48:07;;;;;;;10.98;4.78;;;;;;;12.72;62.67;101464.66;4989173;28;123741;-61
2022/09/25 05:50:34;;;;;;;7.70;4.47;;;;;;;12.72;62.96;101469.97;4978635;28;124678;-61
2022/09/25 05:53:03;;;;;;;9.70;5.32;;;;;;;12.73;62.95;101471.66;4989609;28;114281;-61
2022/09/25 05:55:31;;;;;;;14.82;5.35;;;;;;;12.74;62.84;101476.06;4990765;28;113861;-60
2022/09/25 05:58:02;;;;;;;11.45;5.10;;;;;;;12.74;62.93;101474.25;4990853;28;124254;-60
2022/09/25 06:00:31;;;;;;;11.57;4.60;;;;;;;12.76;62.81;101476.88;4992309;28;123857;-60
2022/09/25 06:03:00;;;;;;;10.57;4.80;;;;;;;12.77;62.95;101478.56;4990776;28;114194;-60
2022/09/25 06:05:27;;;;;;;11.23;5.68;;;;;;;12.77;63.02;101489.22;4988878;28;113877;-61
2022/09/25 06:07:56;;;;;;;10.43;5.90;;;;;;;12.79;62.93;101482.91;4990541;28;124083;-60
2022/09/25 06:10:25;;;;;;;13.63;5.55;;;;;;;12.80;63.11;101491.75;4989057;28;123754;-60
2022/09/25 06:13:01;;;;;;;11.52;5.50;;;;;;;12.79;63.09;101488.22;4992790;28;115463;-60
2022/09/25 06:15:34;;;;;;;7.70;5.07;;;;;;;12.80;62.98;101489.09;4987500;28;114487;-60
2022/09/25 06:18:07;;;;;;;10.50;4.80;;;;;;;12.80;63.05;101483.75;4989174;28;123632;-61
2022/09/25 06:20:34;;;;;;;8.70;4.63;;;;;;;12.80;63.23;101489.09;4990986;28;124845;-60
2022/09/25 06:23:02;;;;;;;10.73;4.80;;;;;;;12.80;63.36;101475.78;4992972;28;114631;-61
2022/09/25 06:25:31;;;;;;;11.10;4.60;;;;;;;12.83;63.49;101488.97;4988566;28;113297;-60
2022/09/25 06:27:59;;;;;;;9.82;4.43;;;;;;;12.87;63.80;101490.53;4990087;28;124021;-60
2022/09/25 06:30:33;;;;;;;8.13;4.53;;;;;;;12.94;63.97;101485.81;4991302;28;123914;-61
2022/09/25 06:33:08;;;;;;;9.95;4.32;;;;;;;13.05;64.35;101489.72;4993104;28;114468;-60
2022/09/25 06:35:40;;;;;;;9.80;4.35;;;;;;;13.22;64.64;101496.06;4980117;28;113895;-60
2022/09/25 06:38:08;;;;;;;7.93;4.43;;;;;;;13.39;64.76;101493.53;4980329;28;124445;-60
2022/09/25 06:40:36;;;;;;;7.85;4.15;;;;;;;13.58;64.85;101487.31;4986837;28;123542;-61
2022/09/25 06:43:04;;;;;;;8.43;4.13;;;;;;;13.76;64.82;101486.47;4982818;28;114227;-61
2022/09/25 06:45:33;;;;;;;5.60;4.00;;;;;;;13.93;64.87;101487.44;4990126;28;113815;-61
2022/09/25 06:48:02;;;;;;;7.93;3.63;;;;;;;14.08;64.96;101497.34;4993441;28;124212;-60
2022/09/25 06:50:42;;;;;;;6.95;3.85;;;;;;;14.28;65.05;101492.81;4991369;28;123938;-61
2022/09/25 06:53:11;;;;;;;7.28;3.83;;;;;;;14.46;64.75;101497.22;4991970;28;114331;-61
2022/09/25 06:55:38;;;;;;;7.63;3.85;;;;;;;14.60;64.42;101488.56;4990230;28;113826;-60
2022/09/25 06:58:09;;;;;;;5.47;3.45;;;;;;;14.74;64.36;101490.50;4980948;28;122911;-60
2022/09/25 07:00:36;;;;;;;6.43;3.42;;;;;;;14.87;64.27;101491.59;4991846;28;123969;-61
2022/09/25 07:05:49;;;;;;;7.32;3.15;;;;;;;15.15;64.00;101495.47;4990594;28;115536;-61
2022/09/25 07:08:18;;;;;;;5.95;3.20;;;;;;;15.27;63.86;101500.13;4992077;28;124580;-60
2022/09/25 07:10:47;;;;;;;6.05;3.40;;;;;;;15.38;63.85;101505.72;4991929;28;124395;-60
2022/09/25 07:13:16;;;;;;;5.90;3.10;;;;;;;15.52;63.64;101509.44;4977533;28;114564;-60
2022/09/25 07:15:53;;;;;;;5.15;3.22;;;;;;;15.65;63.47;101510.53;4990188;28;114276;-61
2022/09/25 07:18:22;;;;;;;5.80;3.15;;;;;;;15.79;63.46;101499.09;4983451;28;123982;-61
2022/09/25 07:20:51;;;;;;;5.90;3.35;;;;;;;15.92;63.25;101496.59;4992205;28;123898;-59
2022/09/25 07:23:21;;;;;;;5.85;3.10;;;;;;;16.04;62.93;101506.56;4992118;28;114162;-59
2022/09/25 07:25:48;;;;;;;7.47;3.10;;;;;;;16.15;62.90;101498.78;4992101;28;114067;-60
2022/09/25 07:28:18;;;;;;;4.95;2.83;;;;;;;16.29;62.76;101499.78;4989362;28;123918;-60
2022/09/25 07:30:45;;;;;;;5.80;3.00;;;;;;;16.41;62.72;101501.75;4991404;28;124819;-60
2022/09/25 07:33:13;;;;;;;6.28;3.15;;;;;;;16.54;62.82;101510.75;4983970;28;114066;-61
2022/09/25 07:35:40;;;;;;;6.53;2.90;;;;;;;16.63;62.26;101503.13;4989332;28;114101;-61
2022/09/25 07:38:07;;;;;;;4.55;3.08;;;;;;;16.71;61.90;101495.53;4990145;28;124778;-62
2022/09/25 07:40:34;;;;;;;4.97;2.70;;;;;;;16.77;61.80;101500.50;4989544;28;123064;-62
2022/09/25 07:43:02;;;;;;;4.72;2.80;;;;;;;16.84;61.77;101515.25;4990905;28;114080;-60
2022/09/25 07:45:30;;;;;;;5.18;2.67;;;;;;;16.97;61.41;101517.19;4988538;28;114384;-59
2022/09/25 07:48:01;;;;;;;7.13;3.20;;;;;;;17.04;61.39;101511.34;4985372;28;124525;-60
2022/09/25 07:50:30;;;;;;;6.82;2.80;;;;;;;17.11;61.17;101511.84;4988290;28;124240;-60
2022/09/25 07:52:58;;;;;;;6.07;2.85;;;;;;;17.18;61.05;101498.94;4989908;28;116013;-60
2022/09/25 07:55:27;;;;;;;4.55;2.85;;;;;;;17.23;60.68;101508.38;4989826;28;114860;-61
2022/09/25 07:57:56;;;;;;;4.90;3.10;;;;;;;17.25;60.66;101511.84;4992296;28;123969;-63
2022/09/25 08:00:25;;;;;;;7.82;3.35;;;;;;;17.27;60.44;101504.59;4992196;28;124679;-60
2022/09/25 08:02:57;;;;;;;6.32;3.25;;;;;;;17.32;60.58;101507.81;4992234;28;114371;-60
2022/09/25 08:05:25;;;;;;;7.32;3.20;;;;;;;17.40;60.32;101509.16;4991638;28;114042;-60
2022/09/25 08:07:53;;;;;;;5.15;2.70;;;;;;;17.42;60.08;101508.13;4989193;28;124549;-60
2022/09/25 08:10:21;;;;;;;6.57;2.70;;;;;;;17.45;59.88;101507.06;4990955;28;124634;-60
2022/09/25 08:12:48;;;;;;;4.22;2.60;;;;;;;17.47;59.80;101499.78;4974530;28;113304;-60
2022/09/25 08:15:15;;;;;;;6.97;2.58;;;;;;;17.49;59.67;101500.53;4992132;28;115151;-60
2022/09/25 08:17:42;;;;;;;4.90;2.47;;;;;;;17.52;59.62;101511.06;4991010;28;123862;-60
2022/09/25 08:20:10;;;;;;;7.28;2.70;;;;;;;17.55;59.63;101508.19;4984242;28;123077;-60
2022/09/25 08:22:38;;;;;;;10.07;2.55;;;;;;;17.60;59.60;101506.06;4990274;28;114052;-60
2022/09/25 08:25:05;;;;;;;5.72;2.55;;;;;;;17.65;59.39;101508.44;4988869;28;114776;-60
2022/09/25 08:27:39;;;;;;;4.15;2.40;;;;;;;17.69;59.55;101510.00;4990396;28;123714;-60
2022/09/25 08:30:08;;;;;;;5.72;2.42;;;;;;;17.76;59.42;101502.41;4984422;28;122627;-60
2022/09/25 08:32:36;;;;;;;5.78;2.70;;;;;;;17.82;59.35;101504.66;4990623;28;113250;-60
2022/09/25 08:35:03;;;;;;;5.63;2.78;;;;;;;17.87;59.22;101502.59;4988852;28;114020;-60
2022/09/25 08:37:31;;;;;;;5.07;2.88;;;;;;;17.93;59.28;101493.28;4982465;28;125202;-60
2022/09/25 08:39:58;;;;;;;5.97;3.00;;;;;;;17.99;59.25;101500.91;4988184;28;125283;-60
2022/09/25 08:42:31;;;;;;;3.42;2.50;;;;;;;18.03;59.07;101497.94;4984539;28;115950;-60
2022/09/25 08:50:42;;;;;;;6.28;2.28;;;;;;;18.23;58.91;101503.81;4990550;28;123877;-60
2022/09/25 08:53:25;;;;;;;5.85;2.20;;;;;;;18.31;58.62;101506.84;4982332;28;114429;-60
2022/09/25 08:58:41;;;;;;;8.02;2.50;;;;;;;18.42;57.73;101515.03;4990714;28;124312;-60
2022/09/25 09:01:17;;;;;;;7.53;2.00;;;;;;;18.44;57.66;101510.44;4991061;28;124352;-60
2022/09/25 09:04:04;;;;;;;;;;;;;;;18.45;58.25;101498.72;4992052;28;114097;-60
2022/09/25 09:06:32;;;;;;;5.57;1.90;;;;;;;18.52;57.95;101498.31;4981495;28;113773;-60
2022/09/25 09:09:12;;;;;;;4.65;1.65;;;;;;;18.56;57.64;101505.19;4983168;28;124687;-60
2022/09/25 09:12:07;;;;;;;6.97;1.60;;;;;;;18.58;57.44;101503.25;4979213;28;123763;-60
2022/09/25 09:14:49;;;;;;;4.28;1.70;;;;;;;18.65;57.04;101496.50;4974507;28;114555;-60
2022/09/25 09:17:20;;;;;;;3.55;1.38;;;;;;;18.70;56.72;101497.03;4989673;28;114573;-60
2022/09/25 09:19:58;;;;;;;7.63;1.60;;;;;;;18.72;56.47;101495.09;4987524;28;124076;-60
2022/09/25 09:22:41;;;;;;;4.03;1.30;;;;;;;18.76;56.58;101491.25;4988321;28;124291;-60
2022/09/25 09:25:25;;;;;;;7.35;1.70;;;;;;;18.81;56.46;101491.81;4988871;28;114468;-60
2022/09/25 09:28:19;;;;;;;4.10;1.27;;;;;;;18.86;56.17;101489.69;4975590;28;114318;-60
2022/09/25 09:31:17;;;;;;;4.85;1.27;;;;;;;18.91;56.01;101483.13;4990547;28;124037;-60
2022/09/25 09:34:09;;;;;;;4.72;1.48;;;;;;;18.96;55.97;101486.34;4989719;28;123469;-60
2022/09/25 09:36:52;;;;;;;5.18;1.48;;;;;;;18.99;55.70;101480.78;4989928;28;115930;-60
2022/09/25 09:39:35;;;;;;;5.95;1.45;;;;;;;19.02;55.42;101480.53;4988044;28;115029;-60
2022/09/25 09:42:37;;;;;;;3.75;1.23;;;;;;;19.11;55.53;101484.41;4977677;28;124234;-60
2022/09/25 09:45:23;;;;;;;4.20;1.20;;;;;;;19.20;55.19;101473.88;4976208;28;124691;-60
2022/09/25 09:48:16;;;;;;;6.13;1.20;;;;;;;19.31;55.49;101488.34;4974532;28;114115;-60
2022/09/25 09:50:49;;;;;;;4.05;1.10;;;;;;;19.43;54.96;101484.78;4989642;28;113803;-60
2022/09/25 09:53:43;;;;;;;5.90;1.10;;;;;;;19.53;54.89;101484.97;4972727;28;123312;-60
2022/09/25 09:56:18;;;;;;;4.00;1.08;;;;;;;19.60;54.53;101476.34;4974483;28;124305;-60
2022/09/25 09:58:59;;;;;;;4.72;1.40;;;;;;;19.63;54.46;101476.13;4975490;28;114085;-60
2022/09/25 10:01:33;;;;;;;3.40;1.05;;;;;;;19.69;53.78;101480.22;4978413;28;114290;-60
2022/09/25 10:04:17;;;;;;;2.92;0.80;;;;;;;19.72;52.98;101479.09;4987194;28;124108;-60
2022/09/25 10:06:48;;;;;;;8.02;1.00;;;;;;;19.70;52.72;101478.38;4988171;28;123995;-60
2022/09/25 10:09:16;;;;;;;3.78;0.88;;;;;;;19.68;52.38;101485.69;4989373;28;114282;-60
2022/09/25 10:11:51;;;;;;;4.65;0.82;;;;;;;19.63;51.87;101470.75;4989444;28;116503;-61
2022/09/25 10:14:20;;;;;;;4.15;0.75;;;;;;;19.61;52.00;101472.72;4989887;28;124206;-61
2022/09/25 10:16:50;;;;;;;2.90;0.90;;;;;;;19.61;51.82;101478.09;4989628;28;124004;-61
2022/09/25 10:19:21;;;;;;;4.82;0.85;;;;;;;19.57;51.55;101479.28;4988094;28;114329;-61
2022/09/25 10:21:57;;;;;;;5.07;1.00;;;;;;;19.52;51.42;101476.06;4988853;28;114150;-61
2022/09/25 10:24:50;;;;;;;4.82;0.95;;;;;;;19.47;51.74;101472.84;4987929;28;123511;-61
2022/09/25 10:27:30;;;;;;;3.97;1.10;;;;;;;19.45;51.50;101469.41;4979923;28;123782;-61
2022/09/25 10:30:23;;;;;;;4.78;0.90;;;;;;;19.48;51.79;101471.00;4992991;28;114240;-61
2022/09/25 10:33:01;;;;;;;2.45;0.80;;;;;;;19.51;51.53;101460.91;4986048;28;114904;-61
2022/09/25 10:35:40;;;;;;;3.55;0.98;;;;;;;19.60;51.99;101460.22;4989645;28;124029;-60
2022/09/25 10:38:26;;;;;;;3.63;0.75;;;;;;;19.71;51.61;101455.91;4985997;28;124772;-60
2022/09/25 10:40:58;;;;;;;5.40;1.00;;;;;;;19.80;51.49;101458.81;4991033;28;114150;-60
2022/09/25 10:43:26;;;;;;;4.35;0.70;;;;;;;19.92;51.33;101454.34;4993346;28;114500;-61
2022/09/25 10:46:12;;;;;;;4.88;0.80;;;;;;;20.03;50.77;101467.84;4992845;28;124094;-60
2022/09/25 10:51:28;;;;;;;3.22;0.75;;;;;;;20.12;49.75;101465.44;4991843;28;114552;-58
2022/09/25 10:54:21;;;;;;;3.47;0.90;;;;;;;20.13;49.99;101462.59;4989921;28;113897;-60
2022/09/25 10:56:49;;;;;;;5.25;0.82;;;;;;;20.20;49.76;101452.25;4989749;28;124647;-60
2022/09/25 10:59:29;;;;;;;2.17;0.70;;;;;;;20.26;49.91;101457.16;4990286;28;123925;-60
2022/09/25 11:01:56;;;;;;;3.17;0.80;;;;;;;20.33;49.38;101453.03;4990272;28;114105;-60
2022/09/25 11:04:30;;;;;;;3.72;0.70;;;;;;;20.38;48.89;101450.84;4988415;28;113794;-61
2022/09/25 11:07:03;;;;;;;2.20;0.80;;;;;;;20.41;48.74;101442.53;4985239;28;123219;-60
2022/09/25 11:09:42;;;;;;;2.83;0.80;;;;;;;20.43;48.46;101443.25;4989562;28;123846;-60
2022/09/25 11:12:22;;;;;;;2.80;0.90;;;;;;;20.49;48.43;101446.47;4990710;28;114428;-60
2022/09/25 11:15:01;;;;;;;2.05;0.73;;;;;;;20.54;48.38;101444.28;4990912;28;114336;-60
2022/09/25 11:17:39;;;;;;;3.15;0.70;;;;;;;20.61;47.67;101450.94;4990792;28;123967;-60
2022/09/25 11:20:20;;;;;;;3.05;0.70;;;;;;;20.65;47.74;101447.03;4991237;28;123626;-60
2022/09/25 11:23:25;;;;;;;3.38;0.88;;;;;;;20.70;47.13;101455.63;4991761;28;114999;-60
2022/09/25 11:26:20;;;;;;;2.40;0.70;;;;;;;20.73;47.36;101438.34;4973803;28;114905;-60
2022/09/25 11:29:18;;;;;;;3.85;1.08;;;;;;;20.76;47.23;101441.66;4990025;28;124417;-60
2022/09/25 11:31:54;;;;;;;3.53;1.05;;;;;;;20.83;47.50;101443.88;4991701;28;124362;-60
2022/09/25 11:34:57;;;;;;;2.40;0.90;;;;;;;20.86;46.96;101438.25;4990150;28;114329;-60
2022/09/25 11:38:12;;;;;;;3.88;1.10;;;;;;;20.86;47.34;101438.25;4980427;28;114490;-60
2022/09/25 11:41:15;;;;;;;3.38;0.90;;;;;;;20.90;47.14;101428.94;4913608;28;123985;-62
2022/09/25 11:44:00;;;;;;;1.70;0.68;;;;;;;20.98;47.24;101431.88;4915150;28;123082;-62
2022/09/25 11:46:55;;;;;;;4.43;0.93;;;;;;;21.05;47.00;101427.72;4984593;28;114166;-62
2022/09/25 11:49:30;;;;;;;3.05;0.88;;;;;;;21.09;46.60;101421.09;4987754;28;114091;-62
2022/09/25 11:52:29;;;;;;;2.60;0.80;;;;;;;21.13;46.58;101419.84;4988221;28;124708;-62
2022/09/25 11:55:26;;;;;;;4.38;1.00;;;;;;;21.20;46.78;101418.38;4988433;28;122960;-62
2022/09/25 11:58:13;;;;;;;2.13;0.75;;;;;;;21.29;46.73;101413.25;4972868;28;113919;-62
2022/09/25 12:01:09;;;;;;;4.57;0.95;;;;;;;21.36;46.70;101411.75;4989134;28;113979;-62
2022/09/25 12:03:36;;;;;;;;;;;;;;;21.44;47.92;101406.63;4988606;28;124178;-62
2022/09/25 12:06:27;;;;;;;1.80;0.65;;;;;;;21.57;46.19;101407.34;4988271;28;123824;-62